• Join FlightAware (Why Join?)
  • Login
  • US Flag 
06:01AM EDT


 

Airport Tracker/Info


-or-


 

Live Flight TrackerFlight Track Log ✈ FIN666 ✈ 22-Dec-2013 ✈ EKCH / CPH - EFHK / HEL

Flight Track Log - Related Links

Times and Time Zones

All times are in EST time to prevent confusion due to time zone crossing. See the FIN666 flight status page for this flight to view local times or setup timezone preferences in your user account.

Time Position Orientation Groundspeed Altitude Reporting Facility
EST Latitude Longitude Course Direction KTS MPH feet Rate Location/Type
07:22AM 55.8556 13.1474 49° Northeast  Level Estimated
07:23AM 55.9343 13.3125 50° Northeast  Level Estimated
07:24AM 56.0129 13.4784 50° Northeast  Level Estimated
07:25AM 56.0912 13.6449 50° Northeast  Level Estimated
07:26AM 56.1718 13.8173 50° Northeast  Level Estimated
07:27AM 56.2521 13.9904 50° Northeast  Level Estimated
07:28AM 56.3322 14.1643 50° Northeast  Level Estimated
07:29AM 56.4120 14.3388 50° Northeast  Level Estimated
07:30AM 56.4916 14.5142 51° Northeast  Level Estimated
07:31AM 56.5709 14.6902 51° Northeast  Level Estimated
07:32AM 56.6499 14.8670 51° Northeast  Level Estimated
07:33AM 56.7288 15.0445 51° Northeast  Level Estimated
07:34AM 56.8073 15.2228 51° Northeast  Level Estimated
07:35AM 56.8856 15.4018 51° Northeast  Level Estimated
07:36AM 56.9637 15.5816 51° Northeast  Level Estimated
07:37AM 57.0415 15.7621 52° Northeast  Level Estimated
07:38AM 57.1179 15.9406 52° Northeast  Level Estimated
07:39AM 57.1939 16.1199 52° Northeast  Level Estimated
07:40AM 57.2698 16.2998 52° Northeast  Level Estimated
07:41AM 57.3454 16.4806 52° Northeast  Level Estimated
07:42AM 57.4207 16.6620 52° Northeast  Level Estimated
07:43AM 57.4957 16.8442 52° Northeast  Level Estimated
07:44AM 57.5705 17.0271 53° Northeast  Level Estimated
07:45AM 57.6451 17.2108 53° Northeast  Level Estimated
07:46AM 57.7193 17.3953 53° Northeast  Level Estimated
07:47AM 57.7933 17.5805 53° Northeast  Level Estimated
07:48AM 57.8670 17.7665 53° Northeast  Level Estimated
07:49AM 57.9405 17.9532 53° Northeast  Level Estimated
07:50AM 58.0136 18.1407 54° Northeast  Level Estimated
07:51AM 58.0865 18.3290 54° Northeast  Level Estimated
07:52AM 58.1592 18.5180 54° Northeast  Level Estimated
07:53AM 58.2315 18.7078 54° Northeast  Level Estimated
07:54AM 58.3035 18.8984 54° Northeast  Level Estimated
07:55AM 58.3753 19.0898 54° Northeast  Level Estimated
07:56AM 58.4468 19.2819 55° Northeast  Level Estimated
07:57AM 58.5180 19.4748 55° Northeast  Level Estimated
07:58AM 58.5889 19.6686 55° Northeast  Level Estimated
07:59AM 58.6595 19.8630 55° Northeast  Level Estimated
08:00AM 58.7298 20.0583 55° Northeast  Level Estimated
08:01AM 58.7998 20.2544 55° Northeast  Level Estimated
08:02AM 58.8695 20.4512 56° Northeast  Level Estimated
08:03AM 58.9390 20.6489 56° Northeast  Level Estimated
08:04AM 59.0081 20.8473 56° Northeast  Level Estimated
08:05AM 59.0769 21.0465 56° Northeast  Level Estimated
08:06AM 59.1454 21.2466 56° Northeast  Level Estimated
08:07AM 59.2136 21.4474 56° Northeast  Level Estimated
08:08AM 59.2815 21.6491 57° Northeast  Level Estimated
08:09AM 59.3491 21.8515 57° Northeast  Level Estimated
08:10AM 59.4163 22.0548 57° Northeast  Level Estimated
08:11AM 59.4833 22.2588 57° Northeast  Level Estimated
08:12AM 59.5499 22.4637 57° Northeast  Level Estimated
08:13AM 59.6162 22.6693 57° Northeast  Level Estimated
08:14AM 59.6822 22.8758 58° Northeast  Level Estimated
08:15AM 59.7478 23.0831 58° Northeast  Level Estimated
08:16AM 59.8131 23.2912 58° Northeast  Level Estimated
08:17AM 59.8781 23.5002 58° Northeast  Level Estimated
08:18AM 59.9428 23.7099 58° Northeast  Level Estimated
08:19AM 60.0071 23.9205 59° Northeast  Level Estimated
08:20AM 60.0711 24.1318 59° Northeast  Level Estimated
08:21AM 60.1348 24.3440 59° Northeast  Level Estimated
08:22AM 60.1981 24.5571 59° Northeast  Level Estimated
08:23AM 60.2611 24.7709 59° Northeast  Level Estimated
08:24AM 60.3172 24.9633 59° Northeast  Level Estimated
08:25AM 60.3172 24.9633 37° Northeast  Level Estimated
08:26AM 60.3172 24.9633 37° Northeast  Level Estimated
08:27AM 60.3172 24.9633 37° Northeast  Level Estimated
08:28AM 60.3172 24.9633 37° Northeast  Level Estimated
08:29AM 60.3172 24.9633 37° Northeast  Level Estimated
08:30AM 60.3172 24.9633 37° Northeast  Level Estimated
08:31AM 60.3172 24.9633 37° Northeast  Level Estimated
08:32AM 60.3172 24.9633 37° Northeast  Level Estimated
08:33AM 60.3172 24.9633 37° Northeast  Level Estimated
08:34AM 60.3172 24.9633 37° Northeast  Level Estimated
08:35AM 60.3172 24.9633 37° Northeast  Level Estimated
08:36AM 60.3172 24.9633 37° Northeast  Level Estimated
08:37AM 60.3172 24.9633 37° Northeast  Level Estimated
08:38AM 60.3172 24.9633 37° Northeast  Level Estimated
08:39AM 60.3172 24.9633 37° Northeast  Level Estimated